Time;durP1;ratioP1;P1;durP2;ratioP2;P2;SDS_P1;SDS_P2;PMS_P1;PMS_P2;Temp;Humidity;BMP_temperature;BMP_pressure;BME280_temperature;BME280_humidity;BME280_pressure;Samples;Min_cycle;Max_cycle;Signal;HPM_P1;HPM_P2
2020/12/24 00:02:03;;;;;;;0.20;0.20;;;;;;;4.53;100.00;99770.16;4879329;29;20052;-82
2020/12/24 00:05:06;;;;;;;0.32;0.20;;;;;;;4.46;100.00;99775.84;4879696;29;20104;-82
2020/12/24 00:08:09;;;;;;;0.50;0.30;;;;;;;4.41;100.00;99787.44;4867640;29;20043;-82
2020/12/24 00:11:12;;;;;;;0.57;0.13;;;;;;;4.42;100.00;99796.44;4879502;29;20131;-82
2020/12/24 00:14:15;;;;;;;0.10;0.08;;;;;;;4.41;100.00;99806.72;4879175;29;20504;-82
2020/12/24 00:17:18;;;;;;;0.15;0.15;;;;;;;4.42;100.00;99808.25;4879327;29;20684;-82
2020/12/24 00:20:20;;;;;;;0.15;0.15;;;;;;;4.42;100.00;99813.00;4867647;29;20055;-81
2020/12/24 00:23:23;;;;;;;2.38;0.20;;;;;;;4.45;100.00;99829.47;4878976;29;20517;-82
2020/12/24 00:26:26;;;;;;;1.65;0.20;;;;;;;4.43;100.00;99842.13;4879170;29;20525;-82
2020/12/24 00:29:29;;;;;;;0.52;0.20;;;;;;;4.43;100.00;99842.13;4878854;29;20051;-83
2020/12/24 00:32:32;;;;;;;0.85;0.30;;;;;;;4.36;100.00;99854.13;4879107;29;20184;-82
2020/12/24 00:35:34;;;;;;;0.10;0.10;;;;;;;4.29;100.00;99870.81;4879237;29;20108;-83
2020/12/24 00:38:37;;;;;;;0.10;0.00;;;;;;;4.24;100.00;99885.16;4867604;29;20104;-83
2020/12/24 00:41:40;;;;;;;0.10;0.10;;;;;;;4.18;100.00;99886.84;4867759;29;20048;-84
2020/12/24 00:44:43;;;;;;;3.67;0.25;;;;;;;4.18;100.00;99891.63;4878785;29;20056;-83
2020/12/24 00:47:47;;;;;;;0.20;0.20;;;;;;;4.13;100.00;99898.41;4879269;29;20140;-83
2020/12/24 00:50:50;;;;;;;0.40;0.40;;;;;;;4.06;100.00;99890.31;4878159;29;20108;-83
2020/12/24 00:53:52;;;;;;;0.10;0.10;;;;;;;4.07;100.00;99894.59;4878839;29;20108;-83
2020/12/24 00:56:55;;;;;;;5.00;0.30;;;;;;;4.01;100.00;99899.09;4878958;29;20060;-83
2020/12/24 00:59:58;;;;;;;0.10;0.08;;;;;;;3.97;100.00;99903.91;4878202;29;20234;-82
2020/12/24 01:03:01;;;;;;;0.85;0.30;;;;;;;3.95;100.00;99908.28;4878750;29;20056;-84
2020/12/24 01:06:04;;;;;;;4.13;0.85;;;;;;;3.97;100.00;99909.41;4878078;29;20048;-83
2020/12/24 01:09:07;;;;;;;0.10;0.10;;;;;;;3.95;100.00;99914.59;4878874;29;20104;-83
2020/12/24 01:12:09;;;;;;;0.10;0.10;;;;;;;3.95;100.00;99916.56;4878878;29;20450;-83
2020/12/24 01:15:13;;;;;;;0.25;0.25;;;;;;;3.90;100.00;99919.84;4877996;29;20092;-83
2020/12/24 01:18:17;;;;;;;2.00;0.52;;;;;;;3.82;100.00;99925.50;4878154;29;20052;-83
2020/12/24 01:21:20;;;;;;;0.77;0.22;;;;;;;3.66;100.00;99930.97;4878258;29;20863;-84
2020/12/24 01:24:23;;;;;;;0.10;0.10;;;;;;;3.58;100.00;99943.34;4878613;29;20173;-83
2020/12/24 01:27:25;;;;;;;0.50;0.38;;;;;;;3.46;100.00;99946.75;4878894;29;20096;-84
2020/12/24 01:30:29;;;;;;;1.25;0.25;;;;;;;3.43;100.00;99952.31;4878696;29;20104;-83
2020/12/24 01:33:31;;;;;;;0.20;0.20;;;;;;;3.29;100.00;99949.88;4877968;29;20048;-83
2020/12/24 01:36:34;;;;;;;1.30;0.88;;;;;;;3.24;100.00;99973.16;4878283;29;20052;-83
2020/12/24 01:39:37;;;;;;;0.35;0.17;;;;;;;3.14;100.00;99978.88;4877797;29;20117;-84
2020/12/24 01:42:39;;;;;;;3.50;0.28;;;;;;;3.08;100.00;99981.31;4877269;29;20423;-84
2020/12/24 01:45:42;;;;;;;0.20;0.20;;;;;;;2.98;100.00;99972.09;4878570;29;20079;-84
2020/12/24 01:48:45;;;;;;;0.10;0.10;;;;;;;2.91;100.00;99976.91;4867075;29;20063;-83
2020/12/24 01:51:54;;;;;;;0.90;0.30;;;;;;;2.82;100.00;99991.22;4878563;29;20048;-84
2020/12/24 01:54:58;;;;;;;3.47;0.60;;;;;;;2.76;100.00;100001.16;4867054;29;20096;-83
2020/12/24 01:58:01;;;;;;;1.80;0.32;;;;;;;2.68;100.00;100013.47;4878799;29;20091;-84
2020/12/24 02:01:04;;;;;;;0.10;0.10;;;;;;;2.48;100.00;100029.13;4866975;29;20406;-84
2020/12/24 02:04:09;;;;;;;0.10;0.10;;;;;;;2.28;100.00;100033.72;4866872;29;20051;-84
2020/12/24 02:07:14;;;;;;;0.75;0.40;;;;;;;2.10;100.00;100044.22;4867035;29;20054;-84
2020/12/24 02:10:17;;;;;;;0.10;0.10;;;;;;;2.08;100.00;100052.09;4867152;29;20052;-84
2020/12/24 02:13:20;;;;;;;1.75;0.43;;;;;;;2.01;100.00;100071.41;4869500;29;20079;-84
2020/12/24 02:16:22;;;;;;;0.75;0.38;;;;;;;1.98;100.00;100069.47;4881654;29;20087;-83
2020/12/24 02:19:26;;;;;;;0.17;0.17;;;;;;;1.89;100.00;100071.94;4881844;29;20498;-84
2020/12/24 02:22:29;;;;;;;0.40;0.40;;;;;;;1.80;100.00;100066.19;4869931;29;20089;-83
2020/12/24 02:25:31;;;;;;;0.22;0.22;;;;;;;1.81;100.00;100073.22;4881448;29;20100;-83
2020/12/24 02:28:35;;;;;;;0.75;0.60;;;;;;;1.80;100.00;100079.91;4881496;29;20414;-83
2020/12/24 02:31:38;;;;;;;0.17;0.17;;;;;;;1.76;100.00;100087.38;4870229;29;20517;-83
2020/12/24 02:34:41;;;;;;;0.55;0.35;;;;;;;1.70;100.00;100087.06;4869936;29;20102;-83
2020/12/24 02:37:43;;;;;;;0.10;0.10;;;;;;;1.56;100.00;100100.94;4869774;29;20060;-83
2020/12/24 02:40:46;;;;;;;0.75;0.75;;;;;;;1.47;100.00;100095.94;4870019;29;20125;-83
2020/12/24 02:43:50;;;;;;;21.48;1.00;;;;;;;1.35;100.00;100103.91;4869603;29;20105;-83
2020/12/24 02:46:52;;;;;;;0.38;0.38;;;;;;;1.30;100.00;100110.63;4881459;29;20055;-84
2020/12/24 02:49:59;;;;;;;2.50;1.27;;;;;;;1.26;100.00;100114.59;4881711;29;20101;-84
2020/12/24 02:53:02;;;;;;;0.10;0.10;;;;;;;1.23;100.00;100124.44;4870092;29;20040;-83
2020/12/24 02:56:05;;;;;;;9.65;0.95;;;;;;;1.19;100.00;100126.41;4869705;29;20106;-84
2020/12/24 02:59:07;;;;;;;0.30;0.28;;;;;;;1.18;100.00;100133.09;4869999;29;20052;-83
2020/12/24 03:02:10;;;;;;;20.33;0.70;;;;;;;1.22;100.00;100139.31;4869835;29;20064;-83
2020/12/24 03:05:13;;;;;;;0.65;0.65;;;;;;;1.22;100.00;100133.81;4869557;29;20186;-84
2020/12/24 03:08:16;;;;;;;0.10;0.10;;;;;;;1.29;100.00;100133.78;4870421;29;20044;-84
2020/12/24 03:11:19;;;;;;;0.25;0.25;;;;;;;1.30;100.00;100145.53;4882272;29;20070;-83
2020/12/24 03:14:21;;;;;;;0.40;0.40;;;;;;;1.25;100.00;100140.47;4870980;29;20044;-83
2020/12/24 03:17:24;;;;;;;0.30;0.30;;;;;;;1.20;100.00;100138.94;4882665;29;20048;-84
2020/12/24 03:20:27;;;;;;;0.30;0.30;;;;;;;1.23;100.00;100135.41;4882533;29;20060;-84
2020/12/24 03:23:30;;;;;;;1.17;0.63;;;;;;;1.18;100.00;100154.25;4882053;29;20137;-84
2020/12/24 03:26:33;;;;;;;13.35;0.68;;;;;;;1.10;100.00;100159.03;4882390;29;20048;-84
2020/12/24 03:29:36;;;;;;;0.20;0.20;;;;;;;1.02;100.00;100173.19;4881579;29;20097;-83
2020/12/24 03:32:39;;;;;;;0.30;0.30;;;;;;;0.86;100.00;100175.63;4880969;29;20118;-82
2020/12/24 03:35:42;;;;;;;2.38;0.93;;;;;;;0.75;100.00;100175.72;4882194;29;20111;-82
2020/12/24 03:38:45;;;;;;;0.30;0.30;;;;;;;0.76;100.00;100177.25;4874373;29;20083;-82
2020/12/24 03:41:47;;;;;;;5.07;0.95;;;;;;;0.73;100.00;100195.31;4881622;29;20045;-81
2020/12/24 03:44:51;;;;;;;0.20;0.20;;;;;;;0.67;100.00;100196.88;4881311;29;20411;-83
2020/12/24 03:47:54;;;;;;;0.10;0.10;;;;;;;0.64;100.00;100203.19;4881603;29;20067;-83
2020/12/24 03:50:57;;;;;;;0.85;0.65;;;;;;;0.61;100.00;100214.94;4882716;29;20093;-83
2020/12/24 03:54:00;;;;;;;0.30;0.30;;;;;;;0.57;100.00;100216.91;4882589;29;20075;-81
2020/12/24 03:57:03;;;;;;;0.30;0.30;;;;;;;0.49;100.00;100222.84;4879420;29;20060;-82
2020/12/24 04:00:05;;;;;;;0.55;0.38;;;;;;;0.49;100.00;100225.56;4878704;29;20055;-82
2020/12/24 04:03:08;;;;;;;0.20;0.20;;;;;;;0.43;100.00;100236.19;4879455;29;20044;-82
2020/12/24 04:06:11;;;;;;;0.22;0.22;;;;;;;0.30;100.00;100237.78;4878629;29;20052;-82
2020/12/24 04:09:14;;;;;;;0.17;0.17;;;;;;;0.16;100.00;100232.34;4879247;29;20110;-81
2020/12/24 04:12:16;;;;;;;5.03;0.80;;;;;;;0.09;100.00;100240.56;4878758;29;20525;-82
2020/12/24 04:15:19;;;;;;;0.20;0.20;;;;;;;0.04;100.00;100245.69;4879059;29;20448;-82
2020/12/24 04:18:22;;;;;;;0.20;0.20;;;;;;;-0.01;100.00;100255.88;4879229;29;20044;-82
2020/12/24 04:21:25;;;;;;;0.38;0.38;;;;;;;-0.06;100.00;100250.78;4881957;29;20055;-82
2020/12/24 04:24:28;;;;;;;0.25;0.25;;;;;;;-0.01;100.00;100260.56;4879119;29;20098;-82
2020/12/24 04:27:31;;;;;;;10.45;0.68;;;;;;;0.03;100.00;100271.50;4878587;29;20426;-82
2020/12/24 04:30:33;;;;;;;0.30;0.30;;;;;;;-0.02;100.00;100276.19;4880445;29;20105;-82
2020/12/24 04:33:38;;;;;;;0.30;0.30;;;;;;;-0.06;100.00;100285.59;4880017;29;20051;-82
2020/12/24 04:36:41;;;;;;;0.30;0.30;;;;;;;-0.14;100.00;100284.81;4879111;29;20113;-82
2020/12/24 04:39:45;;;;;;;0.28;0.28;;;;;;;-0.19;100.00;100277.00;4878966;29;20580;-82
2020/12/24 04:42:50;;;;;;;0.30;0.30;;;;;;;-0.26;100.00;100281.72;4878985;29;20097;-82
2020/12/24 04:45:53;;;;;;;0.65;0.30;;;;;;;-0.29;100.00;100279.75;4879153;29;20056;-81
2020/12/24 04:48:58;;;;;;;0.20;0.20;;;;;;;-0.32;100.00;100284.03;4878660;29;20120;-82
2020/12/24 04:52:01;;;;;;;1.25;1.15;;;;;;;-0.29;100.00;100288.75;4878998;29;20063;-81
2020/12/24 04:55:05;;;;;;;0.60;0.60;;;;;;;-0.27;100.00;100293.81;4878674;29;20517;-81
2020/12/24 04:58:10;;;;;;;1.30;0.50;;;;;;;-0.27;100.00;100291.88;4878802;29;20563;-81
2020/12/24 05:01:17;;;;;;;0.73;0.73;;;;;;;-0.29;100.00;100296.97;4878713;29;20129;-81
2020/12/24 05:04:20;;;;;;;0.30;0.30;;;;;;;-0.33;100.00;100301.66;4884097;29;20100;-82
2020/12/24 05:07:23;;;;;;;5.60;0.82;;;;;;;-0.38;100.00;100302.03;4878639;29;20048;-82
2020/12/24 05:10:26;;;;;;;0.30;0.30;;;;;;;-0.43;100.00;100305.16;4878813;29;20051;-82
2020/12/24 05:13:29;;;;;;;1.00;0.70;;;;;;;-0.42;100.00;100317.66;4867042;29;20573;-82
2020/12/24 05:16:32;;;;;;;0.45;0.45;;;;;;;-0.45;100.00;100312.97;4878545;29;20105;-82
2020/12/24 05:19:35;;;;;;;4.47;0.77;;;;;;;-0.50;100.00;100315.31;4878216;29;20469;-81
2020/12/24 05:22:38;;;;;;;0.30;0.30;;;;;;;-0.53;100.00;100337.97;4878540;29;20044;-81
2020/12/24 05:25:42;;;;;;;0.60;0.60;;;;;;;-0.49;100.00;100334.06;4878736;29;20101;-81
2020/12/24 05:28:46;;;;;;;0.40;0.40;;;;;;;-0.54;100.00;100331.72;4878706;29;20112;-81
2020/12/24 05:31:52;;;;;;;0.40;0.40;;;;;;;-0.58;100.00;100341.88;4878592;29;20044;-81
2020/12/24 05:35:22;;;;;;;0.22;0.22;;;;;;;-0.67;100.00;100344.19;4878509;29;20097;-82
2020/12/24 05:38:33;;;;;;;3.60;0.98;;;;;;;-0.73;100.00;100362.16;4866805;29;20052;-83
2020/12/24 05:41:38;;;;;;;0.30;0.30;;;;;;;-0.82;100.00;100365.25;4878495;29;20180;-82
2020/12/24 05:44:41;;;;;;;0.90;0.57;;;;;;;-0.81;100.00;100364.09;4878222;29;20060;-82
2020/12/24 05:47:44;;;;;;;0.52;0.52;;;;;;;-0.81;100.00;100357.84;4881702;29;20524;-82
2020/12/24 05:50:47;;;;;;;0.52;0.52;;;;;;;-0.83;100.00;100362.91;4881782;29;20406;-82
2020/12/24 05:53:49;;;;;;;0.75;0.75;;;;;;;-0.87;100.00;100362.88;4881705;29;20097;-82
2020/12/24 05:56:54;;;;;;;0.30;0.30;;;;;;;-0.91;100.00;100361.34;4881092;29;20141;-82
2020/12/24 05:59:57;;;;;;;0.45;0.45;;;;;;;-0.94;100.00;100371.09;4883036;29;20054;-81
2020/12/24 06:03:10;;;;;;;1.65;0.73;;;;;;;-0.91;100.00;100385.94;4881402;29;20048;-81
2020/12/24 06:06:22;;;;;;;0.40;0.40;;;;;;;-0.92;100.00;100381.63;4881624;29;20184;-80
2020/12/24 06:09:37;;;;;;;0.30;0.30;;;;;;;-0.98;100.00;100380.44;4881516;29;20097;-81
2020/12/24 06:12:51;;;;;;;2.70;0.50;;;;;;;-1.00;100.00;100390.97;4881757;29;20092;-80
2020/12/24 06:16:01;;;;;;;1.20;0.70;;;;;;;-0.97;100.00;100393.72;4881350;29;20057;-80
2020/12/24 06:19:05;;;;;;;6.43;1.02;;;;;;;-0.95;100.00;100401.53;4883629;29;20486;-80
2020/12/24 06:22:08;;;;;;;0.40;0.40;;;;;;;-0.96;100.00;100399.97;4881687;29;20051;-80
2020/12/24 06:25:12;;;;;;;0.40;0.40;;;;;;;-0.97;100.00;100395.66;4881149;29;20049;-80
2020/12/24 06:28:15;;;;;;;0.63;0.63;;;;;;;-1.03;100.00;100391.72;4881153;29;20044;-82
2020/12/24 06:31:19;;;;;;;0.50;0.50;;;;;;;-1.09;100.00;100398.75;4881114;29;20406;-81
2020/12/24 06:34:30;;;;;;;0.40;0.40;;;;;;;-1.12;100.00;100399.50;4880289;29;20085;-82
2020/12/24 06:37:41;;;;;;;0.50;0.50;;;;;;;-1.15;100.00;100398.31;4881072;29;20175;-81
2020/12/24 06:40:44;;;;;;;1.35;0.60;;;;;;;-1.16;100.00;100404.97;4881146;29;20093;-82
2020/12/24 06:43:47;;;;;;;0.60;0.60;;;;;;;-1.20;100.00;100409.63;4880177;29;20093;-82
2020/12/24 06:46:58;;;;;;;0.50;0.50;;;;;;;-1.23;100.00;100420.50;4880790;29;20051;-82
2020/12/24 06:50:01;;;;;;;0.55;0.55;;;;;;;-1.23;100.00;100431.44;4880893;29;20063;-82
2020/12/24 06:53:30;;;;;;;2.47;1.88;;;;;;;-1.26;100.00;100432.22;4880875;29;20052;-82
2020/12/24 06:56:34;;;;;;;9.48;2.53;;;;;;;-1.29;100.00;100432.97;4880163;29;20089;-82
2020/12/24 06:59:37;;;;;;;5.30;2.00;;;;;;;-1.30;100.00;100442.34;4880621;29;20048;-82
2020/12/24 07:02:40;;;;;;;1.58;1.50;;;;;;;-1.37;100.00;100442.31;4880645;29;20097;-83
2020/12/24 07:05:43;;;;;;;2.55;1.05;;;;;;;-1.41;100.00;100452.44;4868992;29;20073;-82
2020/12/24 07:08:47;;;;;;;0.50;0.50;;;;;;;-1.43;100.00;100457.50;4880795;29;20051;-82
2020/12/24 07:11:55;;;;;;;0.47;0.47;;;;;;;-1.45;100.00;100457.84;4880510;29;20048;-81
2020/12/24 07:15:18;;;;;;;3.10;1.38;;;;;;;-1.46;100.00;100460.97;4880439;29;20120;-81
2020/12/24 07:18:23;;;;;;;0.50;0.50;;;;;;;-1.50;100.00;100455.50;4880774;29;20127;-83
2020/12/24 07:21:32;;;;;;;0.35;0.35;;;;;;;-1.56;100.00;100460.50;4880339;29;20073;-82
2020/12/24 07:24:36;;;;;;;0.50;0.50;;;;;;;-1.59;100.00;100465.94;4880029;29;20052;-81
2020/12/24 07:27:47;;;;;;;0.50;0.50;;;;;;;-1.63;100.00;100467.88;4886613;29;20055;-92
2020/12/24 07:31:02;;;;;;;0.25;0.25;;;;;;;-1.62;100.00;100469.44;4875762;29;20053;-83
2020/12/24 07:34:05;;;;;;;0.85;0.85;;;;;;;-1.64;100.00;100471.75;4883275;29;20133;-82
2020/12/24 07:37:08;;;;;;;1.63;1.10;;;;;;;-1.65;100.00;100481.13;4881159;29;20115;-80
2020/12/24 07:40:11;;;;;;;0.47;0.47;;;;;;;-1.68;100.00;100485.38;4899071;29;20056;-84
2020/12/24 07:43:14;;;;;;;0.80;0.80;;;;;;;-1.74;100.00;100489.63;4897980;29;20108;-83
2020/12/24 07:46:21;;;;;;;1.05;0.95;;;;;;;-1.80;100.00;100485.66;4889023;29;20115;-83
2020/12/24 07:49:23;;;;;;;1.65;1.13;;;;;;;-1.82;100.00;100493.44;4895142;29;20055;-82
2020/12/24 07:52:27;;;;;;;6.65;2.13;;;;;;;-1.86;100.00;100498.09;4889752;29;20505;-81
2020/12/24 07:55:30;;;;;;;0.65;0.65;;;;;;;-1.90;100.00;100491.81;4893172;29;20048;-82
2020/12/24 07:58:34;;;;;;;0.93;0.93;;;;;;;-1.93;100.00;100498.03;4892070;29;20557;-82
2020/12/24 08:01:38;;;;;;;1.52;1.52;;;;;;;-1.94;100.00;100512.84;4887890;29;20047;-81
2020/12/24 08:04:40;;;;;;;3.20;2.22;;;;;;;-2.01;100.00;100507.31;4884774;29;20097;-81
2020/12/24 08:07:43;;;;;;;2.45;1.45;;;;;;;-2.03;100.00;100509.63;4885800;29;20080;-81
2020/12/24 08:10:46;;;;;;;0.65;0.65;;;;;;;-2.04;100.00;100527.16;4885109;29;20065;-81
2020/12/24 08:13:54;;;;;;;0.60;0.60;;;;;;;-2.04;100.00;100534.56;4884651;29;20084;-81
2020/12/24 08:17:24;;;;;;;0.47;0.47;;;;;;;-2.08;100.00;100545.41;4885566;29;20048;-81
2020/12/24 08:20:35;;;;;;;0.40;0.40;;;;;;;-2.08;100.00;100541.94;4886920;29;20459;-81
2020/12/24 08:23:56;;;;;;;1.27;0.73;;;;;;;-2.10;100.00;100547.75;4886277;29;20075;-81
2020/12/24 08:27:00;;;;;;;0.40;0.40;;;;;;;-2.08;100.00;100556.34;4881332;29;20057;-82
2020/12/24 08:30:06;;;;;;;1.38;0.63;;;;;;;-2.03;100.00;100556.00;4880402;29;20567;-82
2020/12/24 08:33:09;;;;;;;6.07;1.88;;;;;;;-1.95;100.00;100560.38;4879739;29;20497;-82
2020/12/24 08:36:14;;;;;;;1.13;1.13;;;;;;;-1.83;100.00;100557.41;4886317;29;20056;-83
2020/12/24 08:39:19;;;;;;;3.22;1.10;;;;;;;-1.72;100.00;100552.81;4879849;29;20048;-82
2020/12/24 08:42:23;;;;;;;2.50;2.30;;;;;;;-1.64;100.00;100551.72;4879121;29;20051;-81
2020/12/24 08:45:27;;;;;;;2.17;1.50;;;;;;;-1.52;100.00;100556.91;4858590;29;20055;-81
2020/12/24 08:48:32;;;;;;;0.50;0.50;;;;;;;-1.38;100.00;100549.97;4859682;29;20113;-81
2020/12/24 08:51:35;;;;;;;0.20;0.20;;;;;;;-1.29;100.00;100553.19;4860808;29;20133;-80
2020/12/24 08:54:38;;;;;;;0.60;0.60;;;;;;;-1.16;100.00;100568.13;4859641;29;20054;-81
2020/12/24 08:57:49;;;;;;;0.28;0.28;;;;;;;-0.99;100.00;100583.84;4859616;29;20072;-82
2020/12/24 09:01:05;;;;;;;0.43;0.43;;;;;;;-0.79;100.00;100593.38;4860546;29;20052;-81
2020/12/24 09:04:16;;;;;;;0.30;0.30;;;;;;;-0.71;100.00;100584.03;4867326;29;20069;-81
2020/12/24 09:07:36;;;;;;;1.10;0.63;;;;;;;-0.71;100.00;100594.97;4860254;29;20451;-80
2020/12/24 09:10:39;;;;;;;1.00;0.82;;;;;;;-0.68;100.00;100627.03;4870331;29;20070;-83
2020/12/24 09:13:43;;;;;;;0.30;0.30;;;;;;;-0.61;100.00;100632.56;4849015;29;20044;-81
2020/12/24 09:17:01;;;;;;;0.98;0.63;;;;;;;-0.53;100.00;100634.16;4884825;29;20108;-84
2020/12/24 09:20:08;;;;;;;8.93;0.70;;;;;;;-0.43;100.00;100646.31;4883370;29;20036;-84
2020/12/24 09:23:13;;;;;;;0.75;0.75;;;;;;;-0.36;100.00;100649.91;4890134;29;20066;-84
2020/12/24 09:26:16;;;;;;;0.77;0.50;;;;;;;-0.27;100.00;100655.81;4891464;29;20150;-82
2020/12/24 09:29:23;;;;;;;1.83;0.47;;;;;;;-0.18;100.00;100652.75;4891676;29;20219;-84
2020/12/24 09:32:26;;;;;;;0.10;0.10;;;;;;;-0.21;100.00;100657.03;4888897;29;20048;-82
2020/12/24 09:35:30;;;;;;;0.40;0.40;;;;;;;-0.24;100.00;100670.69;4889076;29;20068;-82
2020/12/24 09:38:32;;;;;;;0.45;0.45;;;;;;;-0.30;100.00;100664.78;4877235;29;20044;-83
2020/12/24 09:41:40;;;;;;;0.40;0.40;;;;;;;-0.29;100.00;100682.00;4871304;29;20055;-82
2020/12/24 09:44:44;;;;;;;0.22;0.22;;;;;;;-0.28;100.00;100694.53;4874736;29;20044;-82
2020/12/24 09:47:47;;;;;;;0.40;0.30;;;;;;;-0.27;100.00;100709.75;4890596;29;20406;-83
2020/12/24 09:50:50;;;;;;;0.50;0.50;;;;;;;-0.27;100.00;100732.44;4888435;29;20200;-83
2020/12/24 09:53:53;;;;;;;0.40;0.40;;;;;;;-0.28;100.00;100733.59;4873486;29;20125;-81
2020/12/24 09:56:57;;;;;;;0.35;0.35;;;;;;;-0.26;100.00;100747.69;4869834;29;20417;-81
2020/12/24 10:00:01;;;;;;;0.73;0.73;;;;;;;-0.13;100.00;100751.69;4881572;29;20048;-78
2020/12/24 10:03:03;;;;;;;0.68;0.45;;;;;;;-0.04;100.00;100754.88;4869732;29;20080;-83
2020/12/24 10:06:06;;;;;;;11.20;0.88;;;;;;;-0.01;100.00;100754.13;4881811;29;20048;-84
2020/12/24 10:09:09;;;;;;;0.30;0.30;;;;;;;0.04;100.00;100760.41;4881418;29;20052;-81
2020/12/24 10:12:11;;;;;;;0.30;0.30;;;;;;;0.06;100.00;100758.06;4886224;29;20132;-81
2020/12/24 10:15:14;;;;;;;1.05;0.30;;;;;;;0.12;100.00;100757.31;4881571;29;20048;-81
2020/12/24 10:18:17;;;;;;;0.32;0.32;;;;;;;0.23;100.00;100752.69;4885013;29;20047;-84
2020/12/24 10:21:20;;;;;;;0.30;0.30;;;;;;;0.34;100.00;100750.00;4871443;29;20101;-80
2020/12/24 10:24:23;;;;;;;0.30;0.17;;;;;;;0.36;100.00;100739.44;4883876;29;20061;-85
2020/12/24 10:27:26;;;;;;;0.65;0.57;;;;;;;0.44;100.00;100738.28;4881714;29;20096;-84
2020/12/24 10:30:29;;;;;;;0.40;0.30;;;;;;;0.46;100.00;100749.66;4870827;29;20561;-85
2020/12/24 10:33:31;;;;;;;0.57;0.50;;;;;;;0.44;100.00;100752.00;4882095;29;20040;-82
2020/12/24 10:36:34;;;;;;;1.42;1.02;;;;;;;0.39;100.00;100750.41;4869662;29;20052;-83
2020/12/24 10:39:37;;;;;;;0.30;0.30;;;;;;;0.35;100.00;100760.56;4870727;29;20047;-83
2020/12/24 10:42:40;;;;;;;0.32;0.32;;;;;;;0.34;100.00;100764.47;4880102;29;20127;-84
2020/12/24 10:45:43;;;;;;;0.65;0.43;;;;;;;0.34;100.00;100767.22;4881225;29;20548;-84
2020/12/24 10:48:46;;;;;;;1.30;0.68;;;;;;;0.36;100.00;100773.09;4869390;29;20525;-84
2020/12/24 10:51:49;;;;;;;0.85;0.85;;;;;;;0.38;100.00;100772.72;4871135;29;20133;-83
2020/12/24 10:54:52;;;;;;;3.45;0.68;;;;;;;0.38;100.00;100778.19;4886090;29;20060;-85
2020/12/24 10:57:55;;;;;;;0.50;0.50;;;;;;;0.40;100.00;100784.06;4873111;29;20068;-85
2020/12/24 11:00:58;;;;;;;0.30;0.30;;;;;;;0.49;100.00;100792.72;4869590;29;20587;-82
2020/12/24 11:04:03;;;;;;;1.95;0.80;;;;;;;0.49;100.00;100787.25;4880858;29;20520;-85
2020/12/24 11:07:05;;;;;;;0.20;0.20;;;;;;;0.53;100.00;100794.31;4880850;29;20140;-84
2020/12/24 11:10:08;;;;;;;0.70;0.70;;;;;;;0.59;100.00;100794.72;4882386;29;20044;-84
2020/12/24 11:13:11;;;;;;;0.40;0.40;;;;;;;0.59;100.00;100800.19;4880854;29;20177;-84
2020/12/24 11:16:21;;;;;;;0.22;0.15;;;;;;;0.63;100.00;100792.78;4869053;29;20104;-85
2020/12/24 11:19:24;;;;;;;0.80;0.73;;;;;;;0.65;100.00;100795.94;4869093;29;20093;-84
2020/12/24 11:22:27;;;;;;;1.95;0.57;;;;;;;0.65;100.00;100801.41;4868974;29;20060;-84
2020/12/24 11:25:30;;;;;;;0.10;0.10;;;;;;;0.63;100.00;100803.72;4869160;29;20093;-85
2020/12/24 11:28:34;;;;;;;0.80;0.47;;;;;;;0.65;100.00;100806.91;4869234;29;20574;-85
2020/12/24 11:31:38;;;;;;;0.80;0.63;;;;;;;0.67;100.00;100810.81;4880349;29;20135;-84
2020/12/24 11:34:41;;;;;;;18.35;3.85;;;;;;;0.74;100.00;100826.50;4880407;29;20060;-86
2020/12/24 11:37:44;;;;;;;1.33;1.27;;;;;;;0.87;100.00;100822.25;4868641;29;20547;-81
2020/12/24 11:40:47;;;;;;;2.38;1.17;;;;;;;1.05;100.00;100820.34;4880407;29;20080;-80
2020/12/24 11:43:51;;;;;;;2.70;1.13;;;;;;;1.16;100.00;100826.66;4871696;29;20041;-82
2020/12/24 11:46:54;;;;;;;1.13;1.02;;;;;;;1.28;100.00;100822.75;4868189;29;20075;-80
2020/12/24 11:49:57;;;;;;;0.68;0.68;;;;;;;1.49;100.00;100826.31;4879688;29;20048;-81
2020/12/24 11:53:00;;;;;;;0.40;0.40;;;;;;;1.70;100.00;100822.81;4879688;29;20569;-80
2020/12/24 11:56:14;;;;;;;0.32;0.25;;;;;;;1.92;100.00;100840.06;4879312;29;20108;-80
2020/12/24 11:59:17;;;;;;;0.20;0.20;;;;;;;2.06;100.00;100845.53;4879877;29;20051;-79
2020/12/24 12:02:19;;;;;;;1.17;0.32;;;;;;;2.10;100.00;100846.34;4879618;29;20056;-79
2020/12/24 12:05:22;;;;;;;0.20;0.20;;;;;;;2.13;100.00;100829.06;4879349;29;20052;-79
2020/12/24 12:08:25;;;;;;;1.27;0.40;;;;;;;2.20;100.00;100834.53;4879405;29;20413;-78
2020/12/24 12:11:28;;;;;;;0.52;0.52;;;;;;;2.20;100.00;100823.56;4879504;29;20123;-78
2020/12/24 12:14:31;;;;;;;1.23;0.50;;;;;;;2.17;100.00;100840.81;4879441;29;20154;-78
2020/12/24 12:17:34;;;;;;;0.25;0.25;;;;;;;2.15;100.00;100838.47;4879337;29;20055;-80
2020/12/24 12:20:39;;;;;;;0.25;0.25;;;;;;;2.11;100.00;100826.72;4879070;29;20052;-80
2020/12/24 12:23:42;;;;;;;0.28;0.13;;;;;;;1.99;100.00;100826.34;4879179;29;20096;-79
2020/12/24 12:26:45;;;;;;;0.47;0.47;;;;;;;1.93;100.00;100833.38;4879188;29;20414;-79
2020/12/24 12:29:48;;;;;;;6.30;0.68;;;;;;;1.82;100.00;100827.13;4879207;29;20065;-79
2020/12/24 12:32:51;;;;;;;0.63;0.38;;;;;;;1.72;100.00;100836.13;4879482;29;20084;-81
2020/12/24 12:35:54;;;;;;;0.40;0.40;;;;;;;1.64;100.00;100845.53;4879020;29;20105;-79
2020/12/24 12:38:57;;;;;;;1.75;0.45;;;;;;;1.65;100.00;100855.34;4878823;29;20052;-79
2020/12/24 12:42:00;;;;;;;0.25;0.25;;;;;;;1.62;100.00;100864.38;4876462;29;20124;-79
2020/12/24 12:45:05;;;;;;;0.45;0.20;;;;;;;1.72;100.00;100863.59;4877247;29;20443;-79
2020/12/24 12:48:08;;;;;;;0.10;0.10;;;;;;;1.83;100.00;100872.63;4863303;29;20035;-80
2020/12/24 12:51:11;;;;;;;0.28;0.28;;;;;;;1.91;100.00;100877.72;4882514;29;20065;-81
2020/12/24 12:54:14;;;;;;;0.50;0.50;;;;;;;2.00;100.00;100880.09;4880064;29;20051;-80
2020/12/24 12:57:20;;;;;;;0.30;0.30;;;;;;;2.03;100.00;100884.81;4878180;29;20113;-79
2020/12/24 13:00:23;;;;;;;0.93;0.70;;;;;;;2.00;100.00;100874.59;4882089;29;20111;-80
2020/12/24 13:03:26;;;;;;;1.02;0.47;;;;;;;1.88;100.00;100873.03;4881678;29;20101;-79
2020/12/24 13:06:29;;;;;;;0.38;0.38;;;;;;;1.77;100.00;100880.47;4883418;29;20048;-80
2020/12/24 13:09:32;;;;;;;0.35;0.35;;;;;;;1.75;100.00;100884.78;4879072;29;20040;-80
2020/12/24 13:12:35;;;;;;;0.20;0.20;;;;;;;1.82;100.00;100888.31;4879214;29;20052;-80
2020/12/24 13:15:38;;;;;;;0.40;0.40;;;;;;;1.94;100.00;100898.13;4878741;29;20687;-79
2020/12/24 13:18:41;;;;;;;0.50;0.38;;;;;;;2.01;100.00;100898.16;4878994;29;20513;-79
2020/12/24 13:21:44;;;;;;;0.30;0.30;;;;;;;2.08;100.00;100904.41;4878670;29;20093;-80
2020/12/24 13:24:47;;;;;;;0.20;0.10;;;;;;;2.08;100.00;100903.66;4878348;29;20406;-79
2020/12/24 13:27:51;;;;;;;0.20;0.10;;;;;;;2.07;100.00;100907.56;4878878;29;20136;-80
2020/12/24 13:30:54;;;;;;;0.28;0.28;;;;;;;2.09;100.00;100921.69;4879107;29;20101;-79
2020/12/24 13:33:58;;;;;;;0.25;0.25;;;;;;;2.10;100.00;100912.28;4867334;29;20068;-80
2020/12/24 13:37:01;;;;;;;0.63;0.63;;;;;;;2.13;100.00;100916.97;4878689;29;20521;-80
2020/12/24 13:40:05;;;;;;;2.30;0.52;;;;;;;2.17;100.00;100924.03;4879061;29;20056;-79
2020/12/24 13:43:09;;;;;;;0.20;0.20;;;;;;;2.20;100.00;100911.47;4878400;29;20497;-79
2020/12/24 13:46:12;;;;;;;0.40;0.40;;;;;;;2.22;100.00;100923.66;4878372;29;20088;-79
2020/12/24 13:49:16;;;;;;;1.17;0.30;;;;;;;2.27;100.00;100919.72;4878504;29;20112;-80
2020/12/24 13:52:19;;;;;;;1.00;0.22;;;;;;;2.31;100.00;100939.75;4878429;29;20044;-79
2020/12/24 13:55:22;;;;;;;0.47;0.10;;;;;;;2.33;100.00;100926.41;4879122;29;20067;-80
2020/12/24 13:58:25;;;;;;;0.30;0.30;;;;;;;2.36;100.00;100936.59;4878931;29;20096;-79
2020/12/24 14:01:28;;;;;;;1.10;0.63;;;;;;;2.41;100.00;100944.44;4878417;29;20044;-80
2020/12/24 14:04:31;;;;;;;0.30;0.30;;;;;;;2.43;100.00;100941.28;4878379;29;20063;-79
2020/12/24 14:07:34;;;;;;;0.73;0.68;;;;;;;2.45;100.00;100941.72;4879917;29;20047;-79
2020/12/24 14:10:39;;;;;;;0.10;0.10;;;;;;;2.52;100.00;100944.44;4881724;29;20048;-82
2020/12/24 14:13:42;;;;;;;0.75;0.30;;;;;;;2.60;100.00;100948.78;4880789;29;20048;-80